Time;durP1;ratioP1;P1;durP2;ratioP2;P2;SDS_P1;SDS_P2;PMS_P1;PMS_P2;Temp;Humidity;BMP_temperature;BMP_pressure;BME280_temperature;BME280_humidity;BME280_pressure;Samples;Min_cycle;Max_cycle;Signal;HPM_P1;HPM_P2
2023/11/28 00:00:13;;;;;;;1999.90;999.90;;;3.20;99.90;;;;;;4992859;28;20027;-71
2023/11/28 00:02:39;;;;;;;1999.90;999.90;;;3.20;99.90;;;;;;4993027;28;20109;-70
2023/11/28 00:05:05;;;;;;;1999.90;999.90;;;3.20;99.90;;;;;;4974841;28;20061;-72
2023/11/28 00:07:33;;;;;;;1999.90;999.90;;;3.20;99.90;;;;;;4973807;28;20027;-71
2023/11/28 00:09:59;;;;;;;1999.90;999.90;;;3.10;99.90;;;;;;4993406;28;20045;-70
2023/11/28 00:12:26;;;;;;;1999.90;999.90;;;3.10;99.90;;;;;;4992150;28;20027;-72
2023/11/28 00:14:52;;;;;;;1999.90;999.90;;;3.00;99.90;;;;;;4993296;28;20030;-71
2023/11/28 00:17:17;;;;;;;1999.90;999.90;;;3.00;99.90;;;;;;5001146;28;20107;-70
2023/11/28 00:19:43;;;;;;;1999.90;999.90;;;3.00;99.90;;;;;;4992759;28;20029;-71
2023/11/28 00:22:09;;;;;;;1999.90;999.90;;;3.00;99.90;;;;;;4980331;28;20027;-70
2023/11/28 00:24:35;;;;;;;1999.90;999.90;;;3.00;99.90;;;;;;4992213;28;20129;-68
2023/11/28 00:27:01;;;;;;;1999.90;999.90;;;2.90;99.90;;;;;;4997828;28;20034;-70
2023/11/28 00:29:27;;;;;;;1999.90;999.90;;;2.90;99.90;;;;;;4995633;28;20087;-70
2023/11/28 00:31:52;;;;;;;1999.90;999.90;;;3.00;99.90;;;;;;4993584;28;20058;-70
2023/11/28 00:34:18;;;;;;;1999.90;999.90;;;3.00;99.90;;;;;;4992211;28;20478;-71
2023/11/28 00:36:44;;;;;;;1999.90;999.90;;;2.90;99.90;;;;;;4991781;28;20076;-70
2023/11/28 00:39:11;;;;;;;1999.90;999.90;;;2.90;99.90;;;;;;4991051;28;20038;-70
2023/11/28 00:41:37;;;;;;;1999.90;999.90;;;2.90;99.90;;;;;;4985338;28;20035;-70
2023/11/28 00:44:03;;;;;;;1999.90;999.90;;;2.90;99.90;;;;;;4993564;28;20050;-69
2023/11/28 00:46:28;;;;;;;1999.90;999.90;;;2.90;99.90;;;;;;4990418;28;20035;-70
2023/11/28 00:48:54;;;;;;;1999.90;999.90;;;3.00;99.90;;;;;;4992306;28;20270;-70
2023/11/28 00:51:20;;;;;;;1999.90;999.90;;;2.90;99.90;;;;;;4992531;28;20105;-70
2023/11/28 00:53:46;;;;;;;1999.90;999.90;;;2.90;99.90;;;;;;4993743;28;20026;-70
2023/11/28 00:56:21;;;;;;;1999.90;999.90;;;2.90;99.90;;;;;;4996614;28;20018;-70
2023/11/28 00:58:48;;;;;;;1999.90;999.90;;;2.90;99.90;;;;;;5001582;28;20030;-70
2023/11/28 01:01:14;;;;;;;;;;;2.90;99.90;;;;;;4994009;28;20027;-70
2023/11/28 01:03:39;;;;;;;1999.90;999.90;;;2.90;99.90;;;;;;4993033;28;19913;-70
2023/11/28 01:06:07;;;;;;;1999.90;999.90;;;2.90;99.90;;;;;;4993098;28;20030;-70
2023/11/28 01:08:34;;;;;;;1999.90;999.90;;;2.80;99.90;;;;;;4992441;28;20512;-69
2023/11/28 01:10:59;;;;;;;1999.90;999.90;;;2.90;99.90;;;;;;4989158;28;20033;-70
2023/11/28 01:13:25;;;;;;;1999.90;999.90;;;2.90;99.90;;;;;;4993537;28;20042;-70
2023/11/28 01:15:51;;;;;;;1999.90;999.90;;;2.80;99.90;;;;;;4992116;28;20019;-70
2023/11/28 01:18:17;;;;;;;1999.90;999.90;;;2.90;99.90;;;;;;4993332;28;20033;-69
2023/11/28 01:20:44;;;;;;;1999.90;999.90;;;2.90;99.90;;;;;;4991075;28;20034;-70
2023/11/28 01:23:09;;;;;;;1999.90;999.90;;;2.90;99.90;;;;;;4986201;28;20038;-69
2023/11/28 01:25:35;;;;;;;1999.90;999.90;;;2.90;99.90;;;;;;4990509;28;20129;-69
2023/11/28 01:28:01;;;;;;;1999.90;999.90;;;2.90;99.90;;;;;;4991795;28;20027;-70
2023/11/28 01:30:27;;;;;;;1999.90;999.90;;;2.90;99.90;;;;;;4993007;28;20359;-70
2023/11/28 01:32:52;;;;;;;1999.90;999.90;;;2.90;99.90;;;;;;4990982;28;20131;-70
2023/11/28 01:35:18;;;;;;;1999.90;999.90;;;2.80;99.90;;;;;;4993128;28;20030;-70
2023/11/28 01:37:44;;;;;;;1999.90;999.90;;;2.80;99.90;;;;;;4992056;28;20054;-70
2023/11/28 01:40:10;;;;;;;1999.90;999.90;;;2.80;99.90;;;;;;5000124;28;20030;-71
2023/11/28 01:42:36;;;;;;;1999.90;999.90;;;2.80;99.90;;;;;;4993695;28;20271;-70
2023/11/28 01:45:02;;;;;;;1999.90;999.90;;;2.80;99.90;;;;;;4991809;28;20034;-70
2023/11/28 01:47:28;;;;;;;1999.90;999.90;;;2.80;99.90;;;;;;4992980;28;20033;-71
2023/11/28 01:49:54;;;;;;;1999.90;999.90;;;2.80;99.90;;;;;;4991183;28;20038;-70
2023/11/28 01:52:21;;;;;;;1999.90;999.90;;;2.80;99.90;;;;;;4992024;28;20041;-70
2023/11/28 01:54:47;;;;;;;1999.90;999.90;;;2.80;99.90;;;;;;4991124;28;20114;-70
2023/11/28 01:57:12;;;;;;;1999.90;999.90;;;2.90;99.90;;;;;;5034270;28;20062;-70
2023/11/28 01:59:42;;;;;;;1999.90;999.90;;;2.80;99.90;;;;;;4991836;28;20041;-69
2023/11/28 02:02:08;;;;;;;1999.90;999.90;;;2.70;99.90;;;;;;4991819;28;20115;-69
2023/11/28 02:04:34;;;;;;;1999.90;999.90;;;2.70;99.90;;;;;;4991766;28;20030;-70
2023/11/28 02:07:00;;;;;;;1999.90;999.90;;;2.70;99.90;;;;;;4991332;28;20101;-68
2023/11/28 02:09:26;;;;;;;1999.90;999.90;;;2.70;99.90;;;;;;4991681;28;20109;-69
2023/11/28 02:11:52;;;;;;;1999.90;999.90;;;2.60;99.90;;;;;;4991581;28;20022;-69
2023/11/28 02:14:18;;;;;;;1999.90;999.90;;;2.60;99.90;;;;;;4990356;28;20038;-70
2023/11/28 02:16:44;;;;;;;1999.90;999.90;;;2.60;99.90;;;;;;4991917;28;20266;-70
2023/11/28 02:19:10;;;;;;;1999.90;999.90;;;2.60;99.90;;;;;;4991143;28;20458;-69
2023/11/28 02:21:36;;;;;;;1999.90;999.90;;;2.50;99.90;;;;;;4992027;28;20056;-69
2023/11/28 02:24:03;;;;;;;1999.90;999.90;;;2.40;99.90;;;;;;4992909;28;20341;-70
2023/11/28 02:26:29;;;;;;;1999.90;999.90;;;2.30;99.90;;;;;;4990574;28;20034;-70
2023/11/28 02:28:56;;;;;;;1999.90;999.90;;;2.20;99.90;;;;;;4990314;28;20084;-71
2023/11/28 02:31:23;;;;;;;1999.90;999.90;;;2.10;99.90;;;;;;4985816;28;20378;-71
2023/11/28 02:33:49;;;;;;;1999.90;999.90;;;2.10;99.90;;;;;;4990649;28;20026;-71
2023/11/28 02:36:15;;;;;;;1999.90;999.90;;;2.10;99.90;;;;;;4991326;28;20038;-70
2023/11/28 02:38:41;;;;;;;1999.90;999.90;;;2.00;99.90;;;;;;5016585;28;20083;-71
2023/11/28 02:41:07;;;;;;;1999.90;999.90;;;2.00;99.90;;;;;;4991914;28;20038;-70
2023/11/28 02:43:33;;;;;;;1999.90;999.90;;;2.00;99.90;;;;;;4991124;28;20034;-71
2023/11/28 02:45:59;;;;;;;1999.90;999.90;;;1.90;99.90;;;;;;4991403;28;20083;-71
2023/11/28 02:48:24;;;;;;;1999.90;999.90;;;1.90;99.90;;;;;;4988563;28;20030;-70
2023/11/28 02:50:50;;;;;;;1999.90;999.90;;;1.90;99.90;;;;;;4975534;28;20360;-70
2023/11/28 02:53:19;;;;;;;1999.90;999.90;;;1.90;99.90;;;;;;4996452;28;20066;-71
2023/11/28 02:55:45;;;;;;;1999.90;999.90;;;1.90;99.90;;;;;;4973931;28;20317;-71
2023/11/28 02:58:11;;;;;;;1999.90;999.90;;;1.80;99.90;;;;;;4992171;28;20023;-71
2023/11/28 03:00:36;;;;;;;1999.90;999.90;;;1.80;99.90;;;;;;4991140;28;20018;-71
2023/11/28 03:03:02;;;;;;;1999.90;999.90;;;1.90;99.90;;;;;;4974666;28;20030;-71
2023/11/28 03:05:28;;;;;;;1999.90;999.90;;;1.80;99.90;;;;;;4990654;28;20215;-71
2023/11/28 03:07:54;;;;;;;1999.90;999.90;;;1.80;99.90;;;;;;4990513;28;20333;-71
2023/11/28 03:10:20;;;;;;;1999.90;999.90;;;1.80;99.90;;;;;;4991387;28;20030;-71
2023/11/28 03:12:45;;;;;;;1999.90;999.90;;;1.90;99.90;;;;;;4981975;28;20034;-71
2023/11/28 03:15:11;;;;;;;1999.90;999.90;;;1.90;99.90;;;;;;4996499;28;20327;-71
2023/11/28 03:17:37;;;;;;;1999.90;999.90;;;1.80;99.90;;;;;;4988800;28;20318;-70
2023/11/28 03:20:03;;;;;;;1999.90;999.90;;;1.70;99.90;;;;;;4991274;28;20034;-71
2023/11/28 03:22:29;;;;;;;1999.90;999.90;;;1.70;99.90;;;;;;4989672;28;20320;-71
2023/11/28 03:24:55;;;;;;;1999.90;999.90;;;1.70;99.90;;;;;;4991157;28;20038;-67
2023/11/28 03:27:21;;;;;;;1999.90;999.90;;;1.70;99.90;;;;;;4990550;28;20289;-71
2023/11/28 03:29:47;;;;;;;1999.90;999.90;;;1.70;99.90;;;;;;4987817;28;20038;-72
2023/11/28 03:32:12;;;;;;;1999.90;999.90;;;1.70;99.90;;;;;;4994964;28;20031;-72
2023/11/28 03:34:41;;;;;;;1999.90;999.90;;;1.70;99.90;;;;;;4990302;28;20041;-71
2023/11/28 03:37:08;;;;;;;1999.90;999.90;;;1.70;99.90;;;;;;4991156;28;20320;-71
2023/11/28 03:39:33;;;;;;;1999.90;999.90;;;1.70;99.90;;;;;;4989970;28;20121;-70
2023/11/28 03:41:59;;;;;;;1999.90;999.90;;;1.70;99.90;;;;;;4991414;28;20110;-71
2023/11/28 03:44:25;;;;;;;1999.90;999.90;;;1.80;99.90;;;;;;4990428;28;20038;-71
2023/11/28 03:46:50;;;;;;;1999.90;999.90;;;1.80;99.90;;;;;;4987153;28;20059;-71
2023/11/28 03:49:16;;;;;;;1999.90;999.90;;;1.70;99.90;;;;;;4990236;28;20026;-71
2023/11/28 03:51:42;;;;;;;1999.90;999.90;;;1.80;99.90;;;;;;4990456;28;20030;-71
2023/11/28 03:54:07;;;;;;;1999.90;999.90;;;1.80;99.90;;;;;;4991112;28;20062;-71
2023/11/28 03:56:33;;;;;;;1999.90;999.90;;;1.80;99.90;;;;;;4990789;28;20041;-71
2023/11/28 03:58:59;;;;;;;1999.90;999.90;;;1.80;99.90;;;;;;4989840;28;20030;-71
2023/11/28 04:01:24;;;;;;;1999.90;999.90;;;1.70;99.90;;;;;;4997067;28;20027;-71
2023/11/28 04:03:50;;;;;;;1999.90;999.90;;;1.70;99.90;;;;;;4990380;28;20041;-71
2023/11/28 04:06:16;;;;;;;1999.90;999.90;;;1.70;99.90;;;;;;4989898;28;20443;-71
2023/11/28 04:08:42;;;;;;;1999.90;999.90;;;1.70;99.90;;;;;;5011420;28;20056;-71
2023/11/28 04:11:07;;;;;;;1999.90;999.90;;;1.80;99.90;;;;;;5013990;28;21286;-71
2023/11/28 04:13:33;;;;;;;1999.90;999.90;;;1.80;99.90;;;;;;5049682;28;20023;-71
2023/11/28 04:15:59;;;;;;;1999.90;999.90;;;1.80;99.90;;;;;;4990839;28;20030;-71
2023/11/28 04:18:27;;;;;;;1999.90;999.90;;;1.80;99.90;;;;;;4989404;28;20038;-71
2023/11/28 04:20:53;;;;;;;1999.90;999.90;;;1.80;99.90;;;;;;5002102;28;20084;-71
2023/11/28 04:23:19;;;;;;;1999.90;999.90;;;1.80;99.90;;;;;;4989434;28;20030;-71
2023/11/28 04:25:45;;;;;;;1999.90;999.90;;;1.90;99.90;;;;;;4990257;28;20046;-71
2023/11/28 04:28:11;;;;;;;1999.90;999.90;;;1.80;99.90;;;;;;4991796;28;20109;-71
2023/11/28 04:30:37;;;;;;;1999.90;999.90;;;1.90;99.90;;;;;;4993272;28;20478;-71
2023/11/28 04:33:02;;;;;;;1999.90;999.90;;;1.80;99.90;;;;;;4992929;28;20065;-71
2023/11/28 04:35:28;;;;;;;1999.90;999.90;;;1.90;99.90;;;;;;4978778;28;20038;-72
2023/11/28 04:37:54;;;;;;;1999.90;999.90;;;1.90;99.90;;;;;;4992119;28;20103;-71
2023/11/28 04:40:19;;;;;;;1999.90;999.90;;;1.90;99.90;;;;;;4992829;28;20030;-71
2023/11/28 04:42:46;;;;;;;1999.90;999.90;;;1.90;99.90;;;;;;4991699;28;20499;-71
2023/11/28 04:45:12;;;;;;;1999.90;999.90;;;2.00;99.90;;;;;;4992372;28;20061;-71
2023/11/28 04:47:38;;;;;;;1999.90;999.90;;;2.00;99.90;;;;;;4993756;28;20060;-71
2023/11/28 04:50:05;;;;;;;1999.90;999.90;;;2.00;99.90;;;;;;4992925;28;20061;-71
2023/11/28 04:52:31;;;;;;;1999.90;999.90;;;1.90;99.90;;;;;;5026837;28;20425;-70
2023/11/28 04:54:56;;;;;;;1999.90;999.90;;;1.90;99.90;;;;;;4993329;28;20069;-70
2023/11/28 04:57:22;;;;;;;1999.90;999.90;;;2.00;99.90;;;;;;4992796;28;20030;-71
2023/11/28 04:59:48;;;;;;;1999.90;999.90;;;2.00;99.90;;;;;;4993169;28;20066;-71
2023/11/28 05:02:14;;;;;;;1999.90;999.90;;;2.00;99.90;;;;;;4991976;28;20076;-71
2023/11/28 05:04:40;;;;;;;1999.90;999.90;;;2.10;99.90;;;;;;4991327;28;20038;-71
2023/11/28 05:07:06;;;;;;;1999.90;999.90;;;2.10;99.90;;;;;;4990496;28;20276;-71
2023/11/28 05:09:32;;;;;;;1999.90;999.90;;;2.20;99.90;;;;;;4993294;28;20030;-71
2023/11/28 05:11:57;;;;;;;1999.90;999.90;;;2.10;99.90;;;;;;4991975;28;20107;-68
2023/11/28 05:14:23;;;;;;;1999.90;999.90;;;2.10;99.90;;;;;;4992272;28;20037;-71
2023/11/28 05:16:49;;;;;;;1999.90;999.90;;;2.10;99.90;;;;;;4992599;28;20030;-71
2023/11/28 05:19:15;;;;;;;1999.90;999.90;;;2.10;99.90;;;;;;4992781;28;20025;-71
2023/11/28 05:21:41;;;;;;;1999.90;999.90;;;2.10;99.90;;;;;;5015755;28;20091;-71
2023/11/28 05:24:08;;;;;;;1999.90;999.90;;;2.10;99.90;;;;;;5012703;28;20026;-71
2023/11/28 05:26:35;;;;;;;1999.90;999.90;;;2.10;99.90;;;;;;4993167;28;20052;-71
2023/11/28 05:29:00;;;;;;;1999.90;999.90;;;2.00;99.90;;;;;;4992546;28;20042;-71
2023/11/28 05:31:26;;;;;;;1999.90;999.90;;;2.00;99.90;;;;;;4991621;28;20030;-71
2023/11/28 05:33:52;;;;;;;1999.90;999.90;;;1.90;99.90;;;;;;4989863;28;20033;-72
2023/11/28 05:36:18;;;;;;;1999.90;999.90;;;1.90;99.90;;;;;;4992149;28;20023;-71
2023/11/28 05:38:43;;;;;;;1999.90;999.90;;;1.90;99.90;;;;;;4992313;28;20060;-71
2023/11/28 05:41:09;;;;;;;1999.90;999.90;;;1.90;99.90;;;;;;4990959;28;20022;-71
2023/11/28 05:43:35;;;;;;;1999.90;999.90;;;1.90;99.90;;;;;;4991630;28;20432;-71
2023/11/28 05:46:01;;;;;;;1999.90;999.90;;;1.80;99.90;;;;;;4992417;28;20111;-71
2023/11/28 05:48:27;;;;;;;1999.90;999.90;;;1.80;99.90;;;;;;5002676;28;20113;-71
2023/11/28 05:50:53;;;;;;;1999.90;999.90;;;1.70;99.90;;;;;;4991995;28;20035;-70
2023/11/28 05:53:19;;;;;;;1999.90;999.90;;;1.70;99.90;;;;;;5027521;28;20038;-71
2023/11/28 05:55:48;;;;;;;1999.90;999.90;;;1.70;99.90;;;;;;4992483;28;20172;-70
2023/11/28 05:58:14;;;;;;;1999.90;999.90;;;1.70;99.90;;;;;;4992323;28;20033;-71
2023/11/28 06:00:41;;;;;;;1999.90;999.90;;;1.70;99.90;;;;;;4976818;28;20031;-71
2023/11/28 06:03:07;;;;;;;1999.90;999.90;;;1.70;99.90;;;;;;4991733;28;20038;-70
2023/11/28 06:05:33;;;;;;;1999.90;999.90;;;1.70;99.90;;;;;;4992445;28;20110;-70
2023/11/28 06:07:59;;;;;;;1999.90;999.90;;;1.70;99.90;;;;;;5031913;28;20468;-70
2023/11/28 06:10:26;;;;;;;1999.90;999.90;;;1.70;99.90;;;;;;5000458;28;20042;-71
2023/11/28 06:12:54;;;;;;;1999.90;999.90;;;1.60;99.90;;;;;;4992451;28;20105;-71
2023/11/28 06:15:20;;;;;;;1999.90;999.90;;;1.70;99.90;;;;;;4992726;28;20061;-71
2023/11/28 06:17:46;;;;;;;1999.90;999.90;;;1.80;99.90;;;;;;4992012;28;20034;-70
2023/11/28 06:20:14;;;;;;;1999.90;999.90;;;1.70;99.90;;;;;;4992114;28;20030;-71
2023/11/28 06:22:45;;;;;;;1999.90;999.90;;;1.80;99.90;;;;;;4994547;28;20080;-71
2023/11/28 06:25:11;;;;;;;1999.90;999.90;;;1.80;99.90;;;;;;5035308;28;20395;-70
2023/11/28 06:27:37;;;;;;;1999.90;999.90;;;1.90;99.90;;;;;;4991917;28;20035;-70
2023/11/28 06:30:06;;;;;;;1999.90;999.90;;;1.90;99.90;;;;;;4992339;28;20032;-71
2023/11/28 06:32:33;;;;;;;1999.90;999.90;;;1.90;99.90;;;;;;4991701;28;20030;-71
2023/11/28 06:34:59;;;;;;;;;;;2.00;99.90;;;;;;4992819;28;20027;-70
2023/11/28 06:37:25;;;;;;;1999.90;999.90;;;2.00;99.90;;;;;;4992506;28;20597;-71
2023/11/28 06:39:51;;;;;;;1999.90;999.90;;;2.00;99.90;;;;;;4990619;28;20062;-70
2023/11/28 06:42:18;;;;;;;1999.90;999.90;;;2.00;99.90;;;;;;4992248;28;20026;-71
2023/11/28 06:44:43;;;;;;;1999.90;999.90;;;2.00;99.90;;;;;;4991332;28;20334;-70
2023/11/28 06:47:09;;;;;;;1999.90;999.90;;;2.00;99.90;;;;;;4991700;28;20088;-71
2023/11/28 06:49:35;;;;;;;1999.90;999.90;;;2.00;99.90;;;;;;4990708;28;20061;-71
2023/11/28 06:52:02;;;;;;;1999.90;999.90;;;1.90;99.90;;;;;;4974435;28;20030;-70
2023/11/28 06:54:28;;;;;;;;;;;2.00;99.90;;;;;;4991828;28;20049;-68
2023/11/28 06:56:55;;;;;;;1999.90;999.90;;;2.00;99.90;;;;;;4991388;28;20311;-70
2023/11/28 06:59:21;;;;;;;1999.90;999.90;;;2.00;99.90;;;;;;4973209;28;20033;-70
2023/11/28 07:01:48;;;;;;;1999.90;999.90;;;1.90;99.90;;;;;;4973734;28;20022;-71
2023/11/28 07:04:14;;;;;;;1999.90;999.90;;;1.90;99.90;;;;;;4985190;28;20324;-71
2023/11/28 07:06:40;;;;;;;1999.90;999.90;;;1.90;99.90;;;;;;4999978;28;20029;-70
2023/11/28 07:09:06;;;;;;;1999.90;999.90;;;1.90;99.90;;;;;;4973987;28;20310;-70
2023/11/28 07:11:33;;;;;;;1999.90;999.90;;;1.80;99.90;;;;;;4991524;28;20034;-70
2023/11/28 07:14:00;;;;;;;1999.90;999.90;;;1.80;99.90;;;;;;4973748;28;20030;-70
2023/11/28 07:16:26;;;;;;;1999.90;999.90;;;1.70;99.90;;;;;;4991445;28;20018;-70
2023/11/28 07:18:52;;;;;;;1999.90;999.90;;;1.70;99.90;;;;;;4991301;28;20032;-71
2023/11/28 07:21:18;;;;;;;1999.90;999.90;;;1.70;99.90;;;;;;4991646;28;20026;-70
2023/11/28 07:23:44;;;;;;;1999.90;999.90;;;1.70;99.90;;;;;;4991250;28;20038;-71
2023/11/28 07:26:10;;;;;;;1999.90;999.90;;;1.70;99.90;;;;;;4999451;28;20510;-68
2023/11/28 07:28:36;;;;;;;1999.90;999.90;;;1.60;99.90;;;;;;4970675;28;20165;-70
2023/11/28 07:31:02;;;;;;;1999.90;999.90;;;1.70;99.90;;;;;;4990114;28;20252;-70
2023/11/28 07:33:28;;;;;;;1999.90;999.90;;;1.60;99.90;;;;;;4990473;28;20033;-71
2023/11/28 07:35:54;;;;;;;1999.90;999.90;;;1.60;99.90;;;;;;4990844;28;20317;-71
2023/11/28 07:38:24;;;;;;;1999.90;999.90;;;1.60;99.90;;;;;;4990939;28;20034;-71
2023/11/28 07:40:51;;;;;;;1999.90;999.90;;;1.60;99.90;;;;;;4986398;28;20031;-71
2023/11/28 07:43:17;;;;;;;1999.90;999.90;;;1.60;99.90;;;;;;4990497;28;20041;-70
2023/11/28 07:45:42;;;;;;;1999.90;999.90;;;1.60;99.90;;;;;;4990949;28;20742;-71
2023/11/28 07:48:08;;;;;;;1999.90;999.90;;;1.60;99.90;;;;;;4987146;28;20042;-70
2023/11/28 07:50:34;;;;;;;1999.90;999.90;;;1.60;99.90;;;;;;4990189;28;20045;-70
2023/11/28 07:53:00;;;;;;;1999.90;999.90;;;1.60;99.90;;;;;;4989483;28;20037;-71
2023/11/28 07:55:26;;;;;;;1999.90;999.90;;;1.60;99.90;;;;;;4990597;28;20023;-71
2023/11/28 07:57:52;;;;;;;1999.90;999.90;;;1.60;99.90;;;;;;4990538;28;20256;-71
2023/11/28 08:00:21;;;;;;;1999.90;999.90;;;1.60;99.90;;;;;;4990220;28;20064;-71
2023/11/28 08:02:48;;;;;;;1999.90;999.90;;;1.60;99.90;;;;;;4991115;28;20705;-70
2023/11/28 08:05:13;;;;;;;1999.90;999.90;;;1.50;99.90;;;;;;4991361;28;20019;-70
2023/11/28 08:07:40;;;;;;;1999.90;999.90;;;1.60;99.90;;;;;;4975399;28;20042;-71
2023/11/28 08:10:10;;;;;;;1999.90;999.90;;;1.60;99.90;;;;;;4993080;28;20086;-71
2023/11/28 08:12:36;;;;;;;1999.90;999.90;;;1.70;99.90;;;;;;4992940;28;20334;-71
2023/11/28 08:15:02;;;;;;;1999.90;999.90;;;1.60;99.90;;;;;;5006588;28;20022;-70
2023/11/28 08:17:27;;;;;;;1999.90;999.90;;;1.70;99.90;;;;;;5002841;28;20038;-70
2023/11/28 08:19:53;;;;;;;1999.90;999.90;;;1.70;99.90;;;;;;5031224;28;20030;-70
2023/11/28 08:22:19;;;;;;;1999.90;999.90;;;1.70;99.90;;;;;;4989165;28;20337;-70
2023/11/28 08:24:45;;;;;;;1999.90;999.90;;;1.70;99.90;;;;;;4976466;28;20413;-70
2023/11/28 08:27:11;;;;;;;1999.90;999.90;;;1.80;99.90;;;;;;4994783;28;20037;-70
2023/11/28 08:29:37;;;;;;;1999.90;999.90;;;1.70;99.90;;;;;;4985704;28;20037;-70
2023/11/28 08:32:03;;;;;;;1999.90;999.90;;;1.80;99.90;;;;;;4991325;28;20039;-70
2023/11/28 08:34:29;;;;;;;1999.90;999.90;;;1.80;99.90;;;;;;4993124;28;20026;-70
2023/11/28 08:36:54;;;;;;;1999.90;999.90;;;1.80;99.90;;;;;;4993691;28;20101;-70
2023/11/28 08:39:23;;;;;;;1999.90;999.90;;;1.90;99.90;;;;;;4993237;28;20018;-70
2023/11/28 08:41:49;;;;;;;1999.90;999.90;;;1.90;99.90;;;;;;4993382;28;20030;-71
2023/11/28 08:44:15;;;;;;;1999.90;999.90;;;1.90;99.90;;;;;;4991582;28;20031;-70
2023/11/28 08:46:40;;;;;;;1999.90;999.90;;;1.90;99.90;;;;;;4991734;28;20039;-70
2023/11/28 08:49:06;;;;;;;1999.90;999.90;;;2.00;99.90;;;;;;4991354;28;20042;-71
2023/11/28 08:51:33;;;;;;;1999.90;999.90;;;2.10;99.90;;;;;;4984758;28;20097;-71
2023/11/28 08:53:59;;;;;;;1999.90;999.90;;;2.10;99.90;;;;;;4989014;28;20037;-70
2023/11/28 08:56:25;;;;;;;1999.90;999.90;;;2.10;99.90;;;;;;4991672;28;20035;-70
2023/11/28 08:58:52;;;;;;;1999.90;999.90;;;2.20;99.90;;;;;;4992721;28;20116;-70
2023/11/28 09:01:18;;;;;;;1999.90;999.90;;;2.20;99.90;;;;;;4992753;28;20029;-71
2023/11/28 09:03:43;;;;;;;1999.90;999.90;;;2.30;99.90;;;;;;4993304;28;20030;-70
2023/11/28 09:06:09;;;;;;;1999.90;999.90;;;2.30;99.90;;;;;;4975447;28;20072;-68
2023/11/28 09:08:36;;;;;;;1999.90;999.90;;;2.30;99.90;;;;;;4973933;28;20049;-71
2023/11/28 09:11:04;;;;;;;1999.90;999.90;;;2.30;99.90;;;;;;4983840;28;20030;-70
2023/11/28 09:13:31;;;;;;;1999.90;999.90;;;2.30;99.90;;;;;;4991507;28;20042;-71
2023/11/28 09:15:59;;;;;;;1999.90;999.90;;;2.30;99.90;;;;;;4990004;28;20075;-70
2023/11/28 09:18:25;;;;;;;1999.90;999.90;;;2.40;99.90;;;;;;4986269;28;20429;-70
2023/11/28 09:20:51;;;;;;;1999.90;999.90;;;2.50;99.90;;;;;;4990637;28;20027;-70
2023/11/28 09:23:17;;;;;;;1999.90;999.90;;;2.50;99.90;;;;;;4985093;28;20023;-70
2023/11/28 09:25:42;;;;;;;1999.90;999.90;;;2.60;99.90;;;;;;4989898;28;20048;-70
2023/11/28 09:28:08;;;;;;;1999.90;999.90;;;2.60;99.90;;;;;;4988715;28;20328;-71
2023/11/28 09:30:34;;;;;;;1999.90;999.90;;;2.60;99.90;;;;;;4984889;28;20026;-70
2023/11/28 09:33:00;;;;;;;1999.90;999.90;;;2.70;99.90;;;;;;4991533;28;20076;-71
2023/11/28 09:35:27;;;;;;;1999.90;999.90;;;2.70;99.90;;;;;;4984412;28;20019;-70
2023/11/28 09:37:52;;;;;;;1999.90;999.90;;;2.80;99.90;;;;;;4990902;28;20409;-70
2023/11/28 09:40:19;;;;;;;1999.90;999.90;;;2.80;99.90;;;;;;4992692;28;20034;-70
2023/11/28 09:42:49;;;;;;;1999.90;999.90;;;2.90;99.90;;;;;;4991023;28;20066;-68
2023/11/28 09:45:18;;;;;;;1999.90;999.90;;;3.00;99.90;;;;;;4973736;28;20045;-70
2023/11/28 09:47:45;;;;;;;1999.90;999.90;;;3.00;99.90;;;;;;4969655;28;20325;-70
2023/11/28 09:50:13;;;;;;;1999.90;999.90;;;3.00;99.90;;;;;;4986980;28;20044;-70
2023/11/28 09:52:45;;;;;;;1999.90;999.90;;;3.00;99.90;;;;;;4986903;28;20447;-70
2023/11/28 09:55:15;;;;;;;1999.90;999.90;;;3.00;99.90;;;;;;4985188;28;20468;-70
2023/11/28 09:57:48;;;;;;;1999.90;999.90;;;3.10;99.90;;;;;;4983722;28;20042;-68
2023/11/28 10:00:18;;;;;;;1999.90;999.90;;;3.10;99.90;;;;;;4985577;28;20034;-70
2023/11/28 10:02:44;;;;;;;1999.90;999.90;;;3.10;99.90;;;;;;4983955;28;20076;-70
2023/11/28 10:05:11;;;;;;;1999.90;999.90;;;3.20;99.90;;;;;;4985520;28;20030;-70
2023/11/28 10:07:42;;;;;;;;;;;3.20;99.90;;;;;;4991977;28;20076;-70
2023/11/28 10:10:09;;;;;;;1999.90;999.90;;;3.20;99.90;;;;;;4990582;28;19918;-70
2023/11/28 10:12:38;;;;;;;1999.90;999.90;;;3.20;99.90;;;;;;5007600;28;20119;-71
2023/11/28 10:15:07;;;;;;;1999.90;999.90;;;3.20;99.90;;;;;;5012872;28;20031;-71
2023/11/28 10:17:37;;;;;;;1999.90;999.90;;;3.30;99.90;;;;;;4967956;28;20128;-70
2023/11/28 10:20:07;;;;;;;1999.90;999.90;;;3.40;99.90;;;;;;4980783;28;20027;-70
2023/11/28 10:22:34;;;;;;;1999.90;999.90;;;3.50;99.90;;;;;;4970733;28;20038;-70
2023/11/28 10:25:10;;;;;;;1999.90;999.90;;;3.60;99.90;;;;;;4986293;28;20058;-68
2023/11/28 10:27:43;;;;;;;1999.90;999.90;;;3.60;99.90;;;;;;4981667;28;20034;-70
2023/11/28 10:30:16;;;;;;;1999.90;999.90;;;3.60;99.90;;;;;;4980366;28;20286;-70
2023/11/28 10:32:42;;;;;;;1999.90;999.90;;;3.70;99.90;;;;;;4986482;28;20067;-70
2023/11/28 10:35:08;;;;;;;1999.90;999.90;;;3.70;99.90;;;;;;5007557;28;20062;-70
2023/11/28 10:37:38;;;;;;;1999.90;999.90;;;3.70;99.90;;;;;;4989471;28;20045;-70
2023/11/28 10:40:15;;;;;;;1999.90;999.90;;;3.80;99.90;;;;;;4984805;28;20439;-70
2023/11/28 10:42:42;;;;;;;1999.90;999.90;;;3.80;99.90;;;;;;4972911;28;20062;-70
2023/11/28 10:45:10;;;;;;;1999.90;999.90;;;3.90;99.90;;;;;;4996575;28;20413;-70
2023/11/28 10:47:41;;;;;;;1999.90;999.90;;;3.90;99.90;;;;;;4984978;28;20033;-71
2023/11/28 10:50:09;;;;;;;1999.90;999.90;;;3.90;99.90;;;;;;4990956;28;20101;-70
2023/11/28 10:52:39;;;;;;;1999.90;999.90;;;3.90;99.90;;;;;;4991516;28;20034;-70
2023/11/28 10:55:10;;;;;;;1999.90;999.90;;;3.80;99.90;;;;;;4990000;28;21497;-70
2023/11/28 10:57:50;;;;;;;1999.90;999.90;;;3.90;99.90;;;;;;4990393;28;20022;-70
2023/11/28 11:00:21;;;;;;;1999.90;999.90;;;3.90;99.90;;;;;;4973995;28;20584;-70
2023/11/28 11:02:48;;;;;;;1999.90;999.90;;;4.10;99.90;;;;;;4988667;28;20022;-71
2023/11/28 11:05:14;;;;;;;1999.90;999.90;;;4.20;99.90;;;;;;4991203;28;20019;-70
2023/11/28 11:07:41;;;;;;;1999.90;999.90;;;4.30;99.90;;;;;;4990452;28;20040;-70
2023/11/28 11:10:08;;;;;;;;;;;4.30;99.90;;;;;;4974613;28;20439;-71
2023/11/28 11:12:37;;;;;;;1999.90;999.90;;;4.40;99.90;;;;;;4990794;28;19917;-71
2023/11/28 11:15:26;;;;;;;1999.90;999.90;;;4.60;99.90;;;;;;4988976;28;20390;-71
2023/11/28 11:18:20;;;;;;;1999.90;999.90;;;4.60;99.90;;;;;;4985353;28;20194;-70
2023/11/28 11:20:51;;;;;;;1999.90;999.90;;;4.70;99.90;;;;;;4986187;28;20099;-70
2023/11/28 11:23:18;;;;;;;1999.90;999.90;;;4.90;99.90;;;;;;4982567;28;21527;-70
2023/11/28 11:25:50;;;;;;;1999.90;999.90;;;4.90;99.90;;;;;;4998742;28;20118;-70
2023/11/28 11:28:16;;;;;;;1999.90;999.90;;;4.80;99.90;;;;;;4990379;28;20088;-71
2023/11/28 11:30:45;;;;;;;1999.90;999.90;;;4.90;99.90;;;;;;4996986;28;20030;-71
2023/11/28 11:33:12;;;;;;;1999.90;999.90;;;4.90;99.90;;;;;;4984315;28;20069;-71
2023/11/28 11:36:14;;;;;;;1999.90;999.90;;;4.80;99.90;;;;;;4969525;28;20136;-71
2023/11/28 11:38:40;;;;;;;1999.90;999.90;;;4.80;99.90;;;;;;5000915;28;20045;-71
2023/11/28 11:41:10;;;;;;;1999.90;999.90;;;4.70;99.90;;;;;;4983330;28;20121;-71
2023/11/28 11:43:39;;;;;;;1999.90;999.90;;;4.70;99.90;;;;;;4987549;28;20129;-71
2023/11/28 11:46:17;;;;;;;1999.90;999.90;;;4.70;99.90;;;;;;4990363;28;20432;-71
2023/11/28 11:48:43;;;;;;;1999.90;999.90;;;4.70;99.90;;;;;;4987045;28;20095;-71
2023/11/28 11:51:10;;;;;;;1999.90;999.90;;;4.70;99.90;;;;;;4982704;28;20436;-71
2023/11/28 11:53:44;;;;;;;1999.90;999.90;;;4.80;99.90;;;;;;4983737;28;20197;-71
2023/11/28 11:56:11;;;;;;;1999.90;999.90;;;4.80;99.90;;;;;;4995713;28;20034;-71
2023/11/28 11:58:37;;;;;;;1999.90;999.90;;;4.80;99.90;;;;;;4988066;28;20029;-71
2023/11/28 12:01:04;;;;;;;1999.90;999.90;;;5.00;99.90;;;;;;4991343;28;20155;-71
2023/11/28 12:03:29;;;;;;;;;;;5.10;99.90;;;;;;4990145;28;20033;-71
2023/11/28 12:05:59;;;;;;;1999.90;999.90;;;5.30;99.90;;;;;;4994407;28;20035;-71
2023/11/28 12:08:26;;;;;;;1999.90;999.90;;;5.40;99.90;;;;;;4970729;28;20325;-71